createdAt,value
2018-02-08T00:01:00.712Z,98.77
2018-02-08T00:03:29.434Z,95.83
2018-02-08T00:05:56.956Z,87.80
2018-02-08T00:08:26.079Z,87.67
2018-02-08T00:10:54.184Z,88.13
2018-02-08T00:13:21.712Z,83.60
2018-02-08T00:15:49.665Z,81.50
2018-02-08T00:18:17.961Z,86.73
2018-02-08T00:20:45.476Z,85.00
2018-02-08T00:23:13.796Z,85.60
2018-02-08T00:28:24.444Z,82.13
2018-02-08T00:30:53.575Z,80.07
2018-02-08T00:33:21.425Z,77.87
2018-02-08T00:35:48.995Z,80.73
2018-02-08T00:38:16.946Z,72.87
2018-02-08T00:40:44.536Z,73.67
2018-02-08T00:43:12.075Z,75.00
2018-02-08T00:45:39.643Z,71.10
2018-02-08T00:48:07.172Z,75.97
2018-02-08T00:50:35.473Z,71.17
2018-02-08T00:53:03.829Z,76.67
2018-02-08T00:55:32.731Z,75.00
2018-02-08T00:58:00.251Z,70.70
2018-02-08T01:00:31.109Z,77.17
2018-02-08T01:02:59.426Z,73.20
2018-02-08T01:05:26.944Z,76.63
2018-02-08T01:07:55.541Z,69.03
2018-02-08T01:10:23.508Z,70.50
2018-02-08T01:12:51.605Z,72.23
2018-02-08T01:15:19.766Z,69.53
2018-02-08T01:17:47.322Z,72.60
2018-02-08T01:20:15.168Z,69.20
2018-02-08T01:22:44.129Z,65.87
2018-02-08T01:25:13.187Z,67.57
2018-02-08T01:27:41.979Z,68.73
2018-02-08T01:30:12.380Z,64.90
2018-02-08T01:32:39.949Z,66.93
2018-02-08T01:35:08.188Z,68.73
2018-02-08T01:37:37.036Z,74.03
2018-02-08T01:40:04.563Z,71.63
2018-02-08T01:42:32.124Z,72.37
2018-02-08T01:44:59.886Z,71.40
2018-02-08T01:47:27.396Z,66.50
2018-02-08T01:49:56.275Z,68.80
2018-02-08T01:52:26.242Z,74.87
2018-02-08T01:54:53.807Z,71.60
2018-02-08T01:57:21.328Z,76.63
2018-02-08T01:59:49.612Z,78.23
2018-02-08T02:02:18.608Z,71.43
2018-02-08T02:04:46.891Z,71.03
2018-02-08T02:07:14.410Z,70.17
2018-02-08T02:09:42.360Z,76.40
2018-02-08T02:12:09.879Z,64.97
2018-02-08T02:14:37.451Z,70.67
2018-02-08T02:17:07.463Z,59.07
2018-02-08T02:19:35.291Z,70.33
2018-02-08T02:22:02.816Z,72.23
2018-02-08T02:24:30.335Z,67.03
2018-02-08T02:26:57.856Z,66.23
2018-02-08T02:29:25.372Z,65.53
2018-02-08T02:31:53.620Z,70.40
2018-02-08T02:34:21.139Z,77.70
2018-02-08T02:36:48.674Z,73.10
2018-02-08T02:39:17.519Z,71.40
2018-02-08T02:41:46.009Z,66.90
2018-02-08T02:44:13.779Z,67.07
2018-02-08T02:46:41.502Z,67.50
2018-02-08T02:49:09.108Z,70.17
2018-02-08T02:51:36.653Z,66.90
2018-02-08T02:54:04.173Z,65.57
2018-02-08T02:56:32.461Z,64.80
2018-02-08T02:59:00.780Z,68.13
2018-02-08T03:01:30.840Z,62.90
2018-02-08T03:03:59.868Z,61.27
2018-02-08T03:06:27.840Z,67.57
2018-02-08T03:08:55.373Z,63.87
2018-02-08T03:11:24.345Z,58.47
2018-02-08T03:13:52.147Z,66.00
2018-02-08T03:16:20.451Z,61.43
2018-02-08T03:18:48.495Z,63.90
2018-02-08T03:21:16.790Z,65.60
2018-02-08T03:23:44.659Z,63.63
2018-02-08T03:26:14.635Z,60.93
2018-02-08T03:28:43.367Z,62.00
2018-02-08T03:31:11.492Z,67.80
2018-02-08T03:33:39.959Z,65.17
2018-02-08T03:36:07.484Z,68.57
2018-02-08T03:38:35.039Z,66.60
2018-02-08T03:41:02.560Z,64.03
2018-02-08T03:43:30.843Z,76.63
2018-02-08T03:45:58.588Z,61.80
2018-02-08T03:48:26.876Z,67.97
2018-02-08T03:50:55.150Z,76.53
2018-02-08T03:53:23.447Z,78.13
2018-02-08T03:55:51.387Z,76.47
2018-02-08T03:58:19.987Z,82.20
2018-02-08T04:00:47.517Z,81.60
2018-02-08T04:03:15.804Z,81.97
2018-02-08T04:05:44.082Z,75.77
2018-02-08T04:08:13.190Z,76.30
2018-02-08T04:10:41.016Z,61.30
2018-02-08T04:13:08.543Z,70.13
2018-02-08T04:15:36.716Z,74.90
2018-02-08T04:18:04.254Z,75.13
2018-02-08T04:20:31.774Z,74.07
2018-02-08T04:23:00.065Z,74.07
2018-02-08T04:25:28.360Z,67.93
2018-02-08T04:27:57.499Z,77.00
2018-02-08T04:30:25.032Z,81.63
2018-02-08T04:32:52.548Z,78.17
2018-02-08T04:35:21.383Z,81.90
2018-02-08T04:37:49.349Z,86.23
2018-02-08T04:40:28.680Z,79.93
2018-02-08T04:43:08.078Z,84.47
2018-02-08T04:45:48.985Z,78.90
2018-02-08T04:48:18.700Z,75.90
2018-02-08T04:50:46.218Z,83.13
2018-02-08T04:53:14.517Z,71.83
2018-02-08T04:55:42.033Z,83.50
2018-02-08T04:58:09.554Z,83.80
2018-02-08T05:00:37.078Z,78.60
2018-02-08T05:03:04.596Z,81.80
2018-02-08T05:05:32.264Z,86.80
2018-02-08T05:07:59.778Z,90.33
2018-02-08T05:10:27.311Z,82.77
2018-02-08T05:12:54.836Z,92.47
2018-02-08T05:15:22.355Z,80.20
2018-02-08T05:17:50.431Z,91.03
2018-02-08T05:20:17.956Z,85.40
2018-02-08T05:22:45.471Z,88.00
2018-02-08T05:25:12.996Z,90.93
2018-02-08T05:27:40.820Z,83.87
2018-02-08T05:30:09.107Z,94.23
2018-02-08T05:32:37.427Z,96.70
2018-02-08T05:35:04.941Z,89.13
2018-02-08T05:37:32.464Z,96.47
2018-02-08T05:40:00.000Z,96.37
2018-02-08T05:42:27.530Z,108.53
2018-02-08T05:44:55.055Z,104.27
2018-02-08T05:47:23.357Z,100.87
2018-02-08T05:49:51.186Z,114.93
2018-02-08T05:52:18.708Z,114.67
2018-02-08T05:54:46.251Z,109.00
2018-02-08T05:57:13.768Z,108.17
2018-02-08T05:59:42.395Z,109.13
2018-02-08T06:02:09.925Z,103.93
2018-02-08T06:04:38.239Z,100.53
2018-02-08T06:07:06.313Z,95.60
2018-02-08T06:09:34.651Z,98.00
2018-02-08T06:12:02.185Z,88.67
2018-02-08T06:14:29.708Z,83.90
2018-02-08T06:16:57.242Z,85.63
2018-02-08T06:19:24.775Z,82.63
2018-02-08T06:21:55.640Z,88.97
2018-02-08T06:24:23.863Z,85.23
2018-02-08T06:26:51.812Z,81.03
2018-02-08T06:29:19.355Z,87.90
2018-02-08T06:31:46.979Z,86.97
2018-02-08T06:34:15.318Z,83.20
2018-02-08T06:36:43.431Z,93.17
2018-02-08T06:39:11.239Z,84.47
2018-02-08T06:41:39.193Z,81.27
2018-02-08T06:44:07.424Z,104.67
2018-02-08T06:46:36.256Z,103.10
2018-02-08T06:49:03.793Z,89.37
2018-02-08T06:51:31.307Z,91.50
2018-02-08T06:53:59.988Z,87.63
2018-02-08T06:56:27.511Z,89.80
2018-02-08T06:58:55.552Z,89.60
2018-02-08T07:01:23.308Z,105.17
2018-02-08T07:03:52.473Z,111.17
2018-02-08T07:06:20.314Z,107.60
2018-02-08T07:08:47.836Z,98.23
2018-02-08T07:11:15.363Z,111.97
2018-02-08T07:13:43.571Z,109.73
2018-02-08T07:16:11.091Z,100.63
2018-02-08T07:18:38.928Z,108.13
2018-02-08T07:21:06.458Z,94.67
2018-02-08T07:23:33.989Z,106.60
2018-02-08T07:26:02.992Z,103.17
2018-02-08T07:28:31.313Z,106.43
2018-02-08T07:30:58.834Z,99.13
2018-02-08T07:33:26.782Z,82.27
2018-02-08T07:35:55.797Z,81.83
2018-02-08T07:38:23.322Z,78.30
2018-02-08T07:40:50.848Z,78.37
2018-02-08T07:43:18.371Z,79.83
2018-02-08T07:45:46.236Z,74.93
2018-02-08T07:48:13.766Z,77.93
2018-02-08T07:50:42.055Z,74.00
2018-02-08T07:53:10.347Z,77.80
2018-02-08T07:55:37.888Z,76.63
2018-02-08T07:58:07.035Z,67.70
2018-02-08T08:00:34.550Z,63.77
2018-02-08T08:03:02.072Z,72.23
2018-02-08T08:05:29.602Z,71.60
2018-02-08T08:07:57.908Z,72.13
2018-02-08T08:10:26.387Z,74.53
2018-02-08T08:12:56.920Z,69.53
2018-02-08T08:15:24.447Z,73.87
2018-02-08T08:17:51.985Z,76.83
2018-02-08T08:20:19.503Z,76.27
2018-02-08T08:22:47.784Z,71.17
2018-02-08T08:25:16.072Z,74.30
2018-02-08T08:27:44.353Z,75.43
2018-02-08T08:30:12.464Z,88.20
2018-02-08T08:32:40.184Z,68.53
2018-02-08T08:35:08.171Z,75.23
2018-02-08T08:37:35.688Z,64.23
2018-02-08T08:40:03.981Z,59.20
2018-02-08T08:42:32.847Z,67.63
2018-02-08T08:45:01.131Z,61.53
2018-02-08T08:47:29.844Z,62.97
2018-02-08T08:49:57.359Z,63.57
2018-02-08T08:52:27.300Z,61.77
2018-02-08T08:54:56.071Z,58.17
2018-02-08T08:57:25.366Z,60.77
2018-02-08T08:59:52.882Z,64.50
2018-02-08T09:02:20.405Z,62.50
2018-02-08T09:04:48.697Z,57.80
2018-02-08T09:07:16.212Z,55.80
2018-02-08T09:09:43.724Z,56.57
2018-02-08T09:12:11.256Z,55.30
2018-02-08T09:14:39.144Z,53.43
2018-02-08T09:17:07.012Z,61.73
2018-02-08T09:19:34.544Z,60.70
2018-02-08T09:22:02.081Z,59.30
2018-02-08T09:24:30.366Z,59.90
2018-02-08T09:26:58.660Z,59.50
2018-02-08T09:29:26.180Z,60.07
2018-02-08T09:31:54.280Z,65.27
2018-02-08T09:34:23.816Z,59.43
2018-02-08T09:36:52.045Z,61.17
2018-02-08T09:39:20.332Z,57.30
2018-02-08T09:41:49.047Z,65.70
2018-02-08T09:44:16.987Z,64.70
2018-02-08T09:46:45.828Z,62.87
2018-02-08T09:49:13.648Z,67.40
2018-02-08T09:51:41.624Z,60.87
2018-02-08T09:54:09.147Z,67.33
2018-02-08T09:56:37.091Z,69.03
2018-02-08T09:59:04.616Z,60.60
2018-02-08T10:01:32.141Z,62.70
2018-02-08T10:04:00.424Z,65.37
2018-02-08T10:06:29.341Z,66.77
2018-02-08T10:08:56.862Z,69.23
2018-02-08T10:11:25.899Z,60.43
2018-02-08T10:13:53.449Z,61.43
2018-02-08T10:16:21.623Z,64.33
2018-02-08T10:18:49.464Z,65.67
2018-02-08T10:21:17.747Z,59.73
2018-02-08T10:23:45.267Z,53.17
2018-02-08T10:26:12.785Z,65.30
2018-02-08T10:28:40.306Z,64.93
2018-02-08T10:31:09.124Z,60.77
2018-02-08T10:33:36.836Z,60.53
2018-02-08T10:36:04.353Z,64.37
2018-02-08T10:38:32.117Z,64.23
2018-02-08T10:40:59.619Z,64.17
2018-02-08T10:43:27.833Z,64.93
2018-02-08T10:45:55.357Z,61.00
2018-02-08T10:48:24.083Z,66.10
2018-02-08T10:50:52.165Z,62.07
2018-02-08T10:53:19.725Z,56.47
2018-02-08T10:55:47.240Z,63.63
2018-02-08T10:58:15.932Z,58.17
2018-02-08T11:00:44.216Z,62.27
2018-02-08T11:03:11.995Z,65.70
2018-02-08T11:05:39.845Z,63.23
2018-02-08T11:08:07.418Z,66.03
2018-02-08T11:10:36.252Z,63.67
2018-02-08T11:13:03.972Z,62.63
2018-02-08T11:15:31.504Z,66.60
2018-02-08T11:18:00.369Z,65.53
2018-02-08T11:20:27.887Z,66.57
2018-02-08T11:22:55.817Z,63.73
2018-02-08T11:25:24.552Z,63.70
2018-02-08T11:27:52.611Z,67.93
2018-02-08T11:30:20.155Z,69.17
2018-02-08T11:32:47.682Z,64.13
2018-02-08T11:35:15.991Z,60.57
2018-02-08T11:37:43.510Z,63.77
2018-02-08T11:40:11.804Z,62.57
2018-02-08T11:42:40.913Z,64.60
2018-02-08T11:45:09.170Z,62.13
2018-02-08T11:47:37.451Z,63.40
2018-02-08T11:50:05.039Z,63.03
2018-02-08T11:52:32.552Z,60.37
2018-02-08T11:55:00.837Z,66.83
2018-02-08T11:57:29.301Z,62.60
2018-02-08T11:59:58.136Z,63.53
2018-02-08T12:02:26.231Z,62.57
2018-02-08T12:04:54.603Z,69.13
2018-02-08T12:07:22.137Z,61.10
2018-02-08T12:09:50.143Z,66.20
2018-02-08T12:12:17.854Z,60.80
2018-02-08T12:14:45.368Z,64.10
2018-02-08T12:17:12.896Z,60.90
2018-02-08T12:19:40.721Z,60.53
2018-02-08T12:22:09.336Z,62.47
2018-02-08T12:24:36.893Z,67.23
2018-02-08T12:27:04.409Z,67.13
2018-02-08T12:29:32.696Z,67.50
2018-02-08T12:32:01.017Z,68.77
2018-02-08T12:34:28.559Z,67.27
2018-02-08T12:36:56.578Z,62.93
2018-02-08T12:39:24.106Z,65.40
2018-02-08T12:41:52.046Z,70.70
2018-02-08T12:44:19.616Z,69.33
2018-02-08T12:46:47.288Z,64.10
2018-02-08T12:49:14.816Z,64.73
2018-02-08T12:51:42.649Z,66.17
2018-02-08T12:54:10.180Z,64.40
2018-02-08T12:56:38.383Z,64.60
2018-02-08T12:59:06.710Z,61.57
2018-02-08T13:01:34.263Z,63.40
2018-02-08T13:04:02.180Z,59.50
2018-02-08T13:06:31.550Z,58.40
2018-02-08T13:08:59.112Z,66.03
2018-02-08T13:11:26.878Z,69.03
2018-02-08T13:13:54.417Z,64.83
2018-02-08T13:16:21.973Z,60.10
2018-02-08T13:18:49.504Z,63.60
2018-02-08T13:21:17.802Z,63.83
2018-02-08T13:23:45.312Z,66.33
2018-02-08T13:26:12.837Z,66.30
2018-02-08T13:28:40.796Z,63.43
2018-02-08T13:31:08.316Z,63.97
2018-02-08T13:33:37.740Z,70.83
2018-02-08T13:36:06.930Z,65.53
2018-02-08T13:38:34.908Z,66.37
2018-02-08T13:41:02.792Z,69.80
2018-02-08T13:43:30.313Z,61.43
2018-02-08T13:45:58.605Z,64.73
2018-02-08T13:48:28.433Z,62.20
2018-02-08T13:51:04.599Z,63.57
2018-02-08T13:53:38.612Z,66.23
2018-02-08T13:56:10.728Z,65.77
2018-02-08T13:58:43.596Z,68.03
2018-02-08T14:04:12.355Z,61.67
2018-02-08T14:06:39.888Z,67.23
2018-02-08T14:09:08.236Z,67.47
2018-02-08T14:11:35.748Z,63.33
2018-02-08T14:14:03.264Z,62.60
2018-02-08T14:16:31.767Z,64.47
2018-02-08T14:18:59.951Z,70.53
2018-02-08T14:21:27.463Z,66.43
2018-02-08T14:23:55.560Z,66.40
2018-02-08T14:26:23.432Z,64.17
2018-02-08T14:28:52.847Z,62.20
2018-02-08T14:31:20.568Z,65.33
2018-02-08T14:33:49.176Z,69.70
2018-02-08T14:36:16.692Z,66.80
2018-02-08T14:38:44.209Z,70.00
2018-02-08T14:41:11.740Z,73.50
2018-02-08T14:43:41.016Z,73.60
2018-02-08T14:46:08.907Z,70.73
2018-02-08T14:48:36.401Z,66.83
2018-02-08T14:51:03.911Z,73.00
2018-02-08T14:53:32.791Z,75.00
2018-02-08T14:56:00.624Z,73.23
2018-02-08T14:58:28.137Z,70.23
2018-02-08T15:00:55.877Z,73.30
2018-02-08T15:03:23.387Z,73.33
2018-02-08T15:05:50.909Z,74.40
2018-02-08T15:08:19.801Z,99.07
2018-02-08T15:10:48.105Z,73.87
2018-02-08T15:13:16.757Z,72.43
2018-02-08T15:15:45.031Z,73.40
2018-02-08T15:18:13.318Z,77.27
2018-02-08T15:20:40.834Z,71.87
2018-02-08T15:23:09.464Z,77.70
2018-02-08T15:25:37.041Z,70.87
2018-02-08T15:28:04.561Z,73.43
2018-02-08T15:30:32.867Z,80.37
2018-02-08T15:33:00.532Z,76.40
2018-02-08T15:35:28.058Z,83.70
2018-02-08T15:37:56.761Z,82.73
2018-02-08T15:40:24.730Z,84.17
2018-02-08T15:42:52.910Z,81.47
2018-02-08T15:45:20.419Z,80.80
2018-02-08T15:47:48.495Z,91.20
2018-02-08T15:50:19.587Z,83.70
2018-02-08T15:52:47.146Z,85.70
2018-02-08T15:55:14.655Z,84.70
2018-02-08T15:57:42.743Z,93.23
2018-02-08T16:00:11.032Z,84.00
2018-02-08T16:02:38.552Z,90.03
2018-02-08T16:05:06.331Z,101.67
2018-02-08T16:07:34.618Z,100.90
2018-02-08T16:10:04.074Z,105.70
2018-02-08T16:12:31.605Z,105.63
2018-02-08T16:14:59.136Z,108.10
2018-02-08T16:17:28.310Z,89.73
2018-02-08T16:19:56.252Z,96.27
2018-02-08T16:22:24.468Z,107.07
2018-02-08T16:24:52.756Z,98.10
2018-02-08T16:27:21.095Z,100.63
2018-02-08T16:29:48.641Z,88.07
2018-02-08T16:32:16.504Z,96.30
2018-02-08T16:34:44.439Z,93.20
2018-02-08T16:37:12.194Z,103.47
2018-02-08T16:39:40.258Z,99.20
2018-02-08T16:42:08.549Z,98.27
2018-02-08T16:44:36.382Z,102.70
2018-02-08T16:47:04.669Z,96.73
2018-02-08T16:49:33.576Z,95.87
2018-02-08T16:52:01.683Z,111.03
2018-02-08T16:54:29.467Z,107.10
2018-02-08T16:56:57.079Z,100.13
2018-02-08T16:59:24.643Z,101.80
2018-02-08T17:01:52.173Z,113.10
2018-02-08T17:04:20.474Z,116.50
2018-02-08T17:06:48.032Z,105.53
2018-02-08T17:09:15.937Z,110.77
2018-02-08T17:11:44.835Z,112.80
2018-02-08T17:14:12.579Z,109.07
2018-02-08T17:16:40.126Z,106.70
2018-02-08T17:19:08.197Z,110.90
2018-02-08T17:21:35.739Z,115.43
2018-02-08T17:24:03.788Z,110.47
2018-02-08T17:26:32.496Z,115.13
2018-02-08T17:29:00.025Z,114.83
2018-02-08T17:31:28.327Z,112.03
2018-02-08T17:33:58.755Z,111.90
2018-02-08T17:36:26.840Z,115.40
2018-02-08T17:38:54.672Z,114.53
2018-02-08T17:41:22.197Z,112.23
2018-02-08T17:43:51.252Z,115.40
2018-02-08T17:46:18.972Z,114.17
2018-02-08T17:48:47.850Z,112.70
2018-02-08T17:51:16.288Z,128.67
2018-02-08T17:53:43.818Z,113.27
2018-02-08T17:56:11.586Z,117.13
2018-02-08T17:58:39.117Z,119.57
2018-02-08T18:01:06.671Z,129.70
2018-02-08T18:03:41.905Z,121.60
2018-02-08T18:06:10.686Z,131.23
2018-02-08T18:08:38.993Z,130.60
2018-02-08T18:11:06.515Z,131.57
2018-02-08T18:13:34.133Z,128.20
2018-02-08T18:16:02.304Z,130.20
2018-02-08T18:18:29.829Z,129.37
2018-02-08T18:20:59.527Z,117.17
2018-02-08T18:23:28.004Z,127.17
2018-02-08T18:25:57.032Z,128.57
2018-02-08T18:28:24.607Z,128.47
2018-02-08T18:30:52.136Z,118.13
2018-02-08T18:33:20.457Z,117.13
2018-02-08T18:35:48.187Z,138.07
2018-02-08T18:38:15.708Z,129.57
2018-02-08T18:40:43.316Z,124.83
2018-02-08T18:43:10.837Z,131.07
2018-02-08T18:45:39.125Z,124.73
2018-02-08T18:48:07.452Z,124.37
2018-02-08T18:50:37.388Z,119.07
2018-02-08T18:53:05.638Z,114.73
2018-02-08T18:55:33.483Z,117.40
2018-02-08T18:58:01.048Z,128.97
2018-02-08T19:00:28.603Z,126.30
2018-02-08T19:02:56.132Z,125.03
2018-02-08T19:05:24.413Z,125.00
2018-02-08T19:07:51.991Z,140.47
2018-02-08T19:10:20.220Z,125.03
2018-02-08T19:12:49.267Z,132.77
2018-02-08T19:15:18.652Z,130.17
2018-02-08T19:17:46.197Z,127.73
2018-02-08T19:20:14.487Z,128.43
2018-02-08T19:22:42.052Z,148.50
2018-02-08T19:25:09.590Z,156.63
2018-02-08T19:27:38.394Z,133.87
2018-02-08T19:30:05.923Z,141.67
2018-02-08T19:32:34.225Z,152.20
2018-02-08T19:35:01.748Z,138.80
2018-02-08T19:37:30.069Z,229.47
2018-02-08T19:39:58.145Z,216.13
2018-02-08T19:42:25.675Z,180.17
2018-02-08T19:44:53.559Z,194.33
2018-02-08T19:47:21.780Z,176.07
2018-02-08T19:49:49.305Z,227.63
2018-02-08T19:52:16.854Z,191.57
2018-02-08T19:54:44.409Z,213.03
2018-02-08T19:57:11.950Z,172.67
2018-02-08T19:59:39.472Z,214.30
2018-02-08T20:02:06.998Z,196.83
2018-02-08T20:04:34.582Z,148.93
2018-02-08T20:07:02.076Z,147.77
2018-02-08T20:09:30.377Z,162.93
2018-02-08T20:11:58.235Z,150.67
2018-02-08T20:17:27.001Z,149.93
2018-02-08T20:19:54.708Z,159.20
2018-02-08T20:22:22.232Z,132.97
2018-02-08T20:24:50.521Z,126.67
2018-02-08T20:27:19.023Z,132.30
2018-02-08T20:29:47.380Z,137.80
2018-02-08T20:32:15.677Z,137.57
2018-02-08T20:34:43.207Z,148.93
2018-02-08T20:37:11.497Z,145.60
2018-02-08T20:39:39.593Z,138.57
2018-02-08T20:42:08.236Z,143.63
2018-02-08T20:44:37.493Z,126.80
2018-02-08T20:47:05.024Z,138.80
2018-02-08T20:49:32.543Z,147.17
2018-02-08T20:52:00.849Z,153.13
2018-02-08T20:54:28.365Z,146.20
2018-02-08T20:56:57.656Z,142.67
2018-02-08T20:59:31.758Z,149.47
2018-02-08T21:01:59.276Z,156.43
2018-02-08T21:04:26.800Z,139.83
2018-02-08T21:06:55.093Z,143.10
2018-02-08T21:09:23.939Z,144.50
2018-02-08T21:11:51.461Z,134.30
2018-02-08T21:14:18.990Z,149.27
2018-02-08T21:16:47.282Z,149.20
2018-02-08T21:19:14.811Z,141.47
2018-02-08T21:21:43.125Z,164.30
2018-02-08T21:24:11.056Z,162.60
2018-02-08T21:26:39.387Z,179.27
2018-02-08T21:29:06.908Z,153.33
2018-02-08T21:31:35.639Z,140.10
2018-02-08T21:34:03.178Z,148.43
2018-02-08T21:36:30.706Z,138.00
2018-02-08T21:38:59.218Z,156.60
2018-02-08T21:41:27.177Z,162.83
2018-02-08T21:43:54.715Z,163.47
2018-02-08T21:46:23.004Z,185.97
2018-02-08T21:48:51.594Z,182.90
2018-02-08T21:51:19.144Z,172.37
2018-02-08T21:53:46.862Z,149.87
2018-02-08T21:56:14.396Z,153.80
2018-02-08T21:58:41.916Z,156.00
2018-02-08T22:01:10.123Z,154.97
2018-02-08T22:03:37.639Z,155.00
2018-02-08T22:06:05.930Z,168.00
2018-02-08T22:08:33.481Z,163.27
2018-02-08T22:11:01.759Z,166.00
2018-02-08T22:13:29.634Z,198.30
2018-02-08T22:15:57.303Z,243.90
2018-02-08T22:18:24.963Z,222.40
2018-02-08T22:20:52.885Z,208.37
2018-02-08T22:23:22.741Z,205.17
2018-02-08T22:25:50.460Z,211.03
2018-02-08T22:28:18.003Z,193.47
2018-02-08T22:30:45.964Z,180.87
2018-02-08T22:33:14.380Z,175.83
2018-02-08T22:35:43.083Z,173.43
2018-02-08T22:38:10.660Z,161.40
2018-02-08T22:40:38.552Z,173.80
2018-02-08T22:43:06.078Z,163.73
2018-02-08T22:45:33.651Z,173.57
2018-02-08T22:48:01.181Z,177.67
2018-02-08T22:50:28.804Z,182.63
2018-02-08T22:52:56.332Z,161.63
2018-02-08T22:55:23.865Z,160.60
2018-02-08T22:57:51.411Z,164.43
2018-02-08T23:00:20.280Z,151.40
2018-02-08T23:02:49.085Z,166.00
2018-02-08T23:05:16.696Z,159.90
2018-02-08T23:07:44.176Z,163.90
2018-02-08T23:10:12.281Z,157.13
2018-02-08T23:12:40.233Z,161.90
2018-02-08T23:15:08.519Z,152.17
2018-02-08T23:17:36.048Z,144.40
2018-02-08T23:20:05.998Z,152.73
2018-02-08T23:22:36.013Z,147.57
2018-02-08T23:25:03.553Z,142.63
2018-02-08T23:27:31.839Z,161.10
2018-02-08T23:29:59.931Z,165.50
2018-02-08T23:32:27.456Z,166.00
2018-02-08T23:34:55.746Z,150.90
2018-02-08T23:37:23.289Z,151.47
2018-02-08T23:39:51.598Z,155.53
2018-02-08T23:42:19.322Z,149.77
2018-02-08T23:44:48.193Z,149.67
2018-02-08T23:47:15.734Z,136.13
2018-02-08T23:49:44.337Z,162.63
2018-02-08T23:52:12.079Z,149.53
2018-02-08T23:54:39.624Z,149.43
2018-02-08T23:57:07.528Z,154.53
2018-02-08T23:59:35.051Z,167.90
